Time;durP1;ratioP1;P1;durP2;ratioP2;P2;SDS_P1;SDS_P2;PMS_P1;PMS_P2;Temp;Humidity;BMP_temperature;BMP_pressure;BME280_temperature;BME280_humidity;BME280_pressure;Samples;Min_cycle;Max_cycle;Signal;HPM_P1;HPM_P2
2023/06/05 00:02:05;;;;;;;0.20;0.20;;;6.80;99.90;;;;;;5035700;28;20100;-77
2023/06/05 00:04:30;;;;;;;0.20;0.20;;;6.70;99.90;;;;;;5035292;28;20475;-76
2023/06/05 00:06:57;;;;;;;0.20;0.20;;;6.80;99.90;;;;;;5035266;28;20098;-77
2023/06/05 00:09:23;;;;;;;0.20;0.20;;;6.90;99.90;;;;;;5035528;28;20057;-77
2023/06/05 00:11:48;;;;;;;0.13;0.13;;;6.80;99.90;;;;;;5035075;28;20364;-77
2023/06/05 00:14:14;;;;;;;0.20;0.20;;;6.80;99.90;;;;;;5035165;28;20056;-77
2023/06/05 00:16:40;;;;;;;0.20;0.20;;;6.80;99.90;;;;;;5017252;28;20399;-77
2023/06/05 00:19:06;;;;;;;0.20;0.20;;;6.80;99.90;;;;;;5035073;28;20021;-77
2023/06/05 00:21:32;;;;;;;0.20;0.20;;;6.70;99.90;;;;;;5035007;28;20024;-77
2023/06/05 00:23:57;;;;;;;0.20;0.20;;;6.60;99.90;;;;;;5017256;28;20116;-77
2023/06/05 00:26:23;;;;;;;0.20;0.20;;;6.60;99.90;;;;;;5034918;28;20403;-77
2023/06/05 00:28:48;;;;;;;0.20;0.20;;;6.50;99.90;;;;;;5017164;28;20048;-76
2023/06/05 00:31:14;;;;;;;0.20;0.20;;;6.50;99.90;;;;;;5034894;28;20021;-77
2023/06/05 00:33:40;;;;;;;0.20;0.20;;;6.50;99.90;;;;;;5034831;28;20076;-77
2023/06/05 00:36:06;;;;;;;0.13;0.13;;;6.50;99.90;;;;;;5035697;28;20026;-76
2023/06/05 00:38:32;;;;;;;0.10;0.10;;;6.50;99.90;;;;;;5035143;28;20068;-75
2023/06/05 00:40:57;;;;;;;0.10;0.10;;;6.50;99.90;;;;;;5034427;28;20045;-76
2023/06/05 00:43:23;;;;;;;0.17;0.17;;;6.50;99.90;;;;;;5016925;28;20067;-76
2023/06/05 00:45:52;;;;;;;0.20;0.20;;;6.50;99.90;;;;;;5034543;28;20079;-76
2023/06/05 00:48:18;;;;;;;0.30;0.30;;;6.50;99.90;;;;;;5034493;28;20025;-76
2023/06/05 00:50:43;;;;;;;0.17;0.17;;;6.50;99.90;;;;;;5034406;28;20129;-77
2023/06/05 00:53:09;;;;;;;0.22;0.22;;;6.50;99.90;;;;;;5016619;28;20029;-77
2023/06/05 00:55:36;;;;;;;0.20;0.20;;;6.50;99.90;;;;;;5034508;28;20092;-77
2023/06/05 00:58:03;;;;;;;0.25;0.25;;;6.50;99.90;;;;;;5034359;28;20067;-77
2023/06/05 01:00:28;;;;;;;0.30;0.30;;;6.40;99.90;;;;;;5017343;28;20022;-76
2023/06/05 01:02:56;;;;;;;0.20;0.20;;;6.40;99.90;;;;;;5014427;28;20021;-76
2023/06/05 01:05:22;;;;;;;0.20;0.20;;;6.30;99.90;;;;;;5014398;28;20164;-77
2023/06/05 01:07:48;;;;;;;0.30;0.30;;;6.30;99.90;;;;;;5014365;28;20041;-77
2023/06/05 01:10:14;;;;;;;0.20;0.20;;;6.20;99.90;;;;;;5014380;28;20093;-76
2023/06/05 01:13:23;;;;;;;0.20;0.20;;;6.20;99.90;;;;;;5020044;28;20490;-76
2023/06/05 01:15:50;;;;;;;0.20;0.20;;;6.10;99.90;;;;;;5033816;28;20483;-76
2023/06/05 01:18:18;;;;;;;0.20;0.20;;;6.10;99.90;;;;;;5033997;28;20431;-76
2023/06/05 01:20:44;;;;;;;0.22;0.22;;;6.10;99.90;;;;;;5033783;28;20021;-77
2023/06/05 01:23:10;;;;;;;0.10;0.10;;;6.10;99.90;;;;;;5033499;28;20018;-77
2023/06/05 01:25:36;;;;;;;0.20;0.20;;;6.00;99.90;;;;;;5033665;28;20028;-76
2023/06/05 01:28:16;;;;;;;0.20;0.20;;;6.10;99.90;;;;;;5033532;28;20021;-76
2023/06/05 01:31:00;;;;;;;0.20;0.20;;;6.00;99.90;;;;;;5015953;28;20034;-77
2023/06/05 01:33:49;;;;;;;0.22;0.22;;;6.00;99.90;;;;;;5033459;28;20036;-76
2023/06/05 01:36:15;;;;;;;0.20;0.20;;;5.90;99.90;;;;;;5033607;28;20064;-77
2023/06/05 01:38:42;;;;;;;0.30;0.30;;;5.90;99.90;;;;;;5015943;28;20068;-77
2023/06/05 01:41:12;;;;;;;0.20;0.20;;;5.80;99.90;;;;;;5033416;28;20039;-77
2023/06/05 01:43:39;;;;;;;0.20;0.20;;;5.80;99.90;;;;;;5033112;28;20017;-76
2023/06/05 01:46:08;;;;;;;0.17;0.17;;;5.80;99.90;;;;;;5033487;28;20018;-77
2023/06/05 01:48:35;;;;;;;0.20;0.20;;;5.80;99.90;;;;;;5033190;28;20029;-76
2023/06/05 01:51:01;;;;;;;0.20;0.20;;;5.80;99.90;;;;;;5033126;28;20368;-76
2023/06/05 01:53:28;;;;;;;0.20;0.20;;;5.90;99.90;;;;;;5015286;28;20025;-76
2023/06/05 01:55:57;;;;;;;0.22;0.22;;;5.90;99.90;;;;;;5032961;28;20025;-76
2023/06/05 01:58:24;;;;;;;0.20;0.20;;;5.90;99.90;;;;;;5032964;28;20475;-76
2023/06/05 02:00:50;;;;;;;0.20;0.20;;;5.80;99.90;;;;;;5032872;28;20096;-76
2023/06/05 02:03:16;;;;;;;0.20;0.20;;;5.80;99.90;;;;;;5033182;28;20056;-77
2023/06/05 02:05:42;;;;;;;0.30;0.30;;;5.80;99.90;;;;;;5032896;28;20036;-76
2023/06/05 02:08:09;;;;;;;0.20;0.20;;;5.80;99.90;;;;;;5033209;28;20107;-76
2023/06/05 02:10:35;;;;;;;0.20;0.20;;;5.80;99.90;;;;;;5032911;28;20030;-77
2023/06/05 02:13:01;;;;;;;0.20;0.20;;;5.80;99.90;;;;;;5015134;28;20031;-75
2023/06/05 02:15:26;;;;;;;0.20;0.20;;;5.80;99.90;;;;;;5033237;28;20108;-76
2023/06/05 02:17:53;;;;;;;0.30;0.30;;;5.70;99.90;;;;;;5033246;28;20018;-76
2023/06/05 02:20:19;;;;;;;0.20;0.20;;;5.70;99.90;;;;;;5032871;28;20017;-76
2023/06/05 02:22:45;;;;;;;0.28;0.28;;;5.70;99.90;;;;;;5033370;28;20022;-76
2023/06/05 02:25:11;;;;;;;0.20;0.20;;;5.60;99.90;;;;;;5033260;28;20479;-76
2023/06/05 02:27:38;;;;;;;0.20;0.20;;;5.60;99.90;;;;;;5033862;28;20035;-77
2023/06/05 02:30:04;;;;;;;0.20;0.20;;;5.60;99.90;;;;;;5015595;28;20063;-77
2023/06/05 02:32:31;;;;;;;0.20;0.20;;;5.60;99.90;;;;;;5033150;28;20441;-76
2023/06/05 02:34:57;;;;;;;0.20;0.20;;;5.50;99.90;;;;;;5016168;28;20060;-75
2023/06/05 02:37:24;;;;;;;0.20;0.20;;;5.50;99.90;;;;;;5020631;28;20055;-76
2023/06/05 02:39:49;;;;;;;0.20;0.20;;;5.40;99.90;;;;;;5054176;23;20094;-73
2023/06/05 02:42:15;;;;;;;0.20;0.20;;;5.40;99.90;;;;;;5036128;28;20042;-73
2023/06/05 02:44:40;;;;;;;0.20;0.20;;;5.40;99.90;;;;;;5035968;28;20028;-72
2023/06/05 02:47:06;;;;;;;0.20;0.20;;;5.40;99.90;;;;;;5035333;28;20033;-72
2023/06/05 02:49:32;;;;;;;0.20;0.20;;;5.40;99.90;;;;;;5036187;28;20037;-73
2023/06/05 02:51:58;;;;;;;0.20;0.20;;;5.40;99.90;;;;;;5032064;28;20034;-73
2023/06/05 02:54:25;;;;;;;0.10;0.10;;;5.40;99.90;;;;;;5016722;28;20112;-72
2023/06/05 02:56:50;;;;;;;0.20;0.20;;;5.30;99.90;;;;;;5014856;28;20022;-73
2023/06/05 02:59:16;;;;;;;0.10;0.10;;;5.30;99.90;;;;;;5016777;28;20026;-73
2023/06/05 03:01:43;;;;;;;0.20;0.20;;;5.30;99.90;;;;;;5016284;28;20022;-73
2023/06/05 03:04:09;;;;;;;0.20;0.20;;;5.30;99.90;;;;;;5016438;28;20076;-73
2023/06/05 03:06:35;;;;;;;0.20;0.20;;;5.30;99.90;;;;;;5015398;28;20037;-73
2023/06/05 03:09:00;;;;;;;0.20;0.20;;;5.20;99.90;;;;;;5016198;28;20022;-73
2023/06/05 03:11:26;;;;;;;0.15;0.15;;;5.20;99.90;;;;;;5014937;28;20484;-73
2023/06/05 03:13:52;;;;;;;0.20;0.20;;;5.20;99.90;;;;;;5016512;28;20499;-73
2023/06/05 03:16:18;;;;;;;0.20;0.20;;;5.20;99.90;;;;;;5016112;28;20072;-73
2023/06/05 03:18:44;;;;;;;0.20;0.20;;;5.30;99.90;;;;;;5016160;28;20026;-73
2023/06/05 03:21:10;;;;;;;0.20;0.20;;;5.30;99.90;;;;;;5015798;28;20030;-73
2023/06/05 03:23:36;;;;;;;0.20;0.20;;;5.30;99.90;;;;;;5016368;28;20017;-73
2023/06/05 03:26:04;;;;;;;0.20;0.20;;;5.30;99.90;;;;;;5031427;28;20036;-72
2023/06/05 03:28:33;;;;;;;0.15;0.15;;;5.30;99.90;;;;;;5015480;28;20499;-73
2023/06/05 03:30:58;;;;;;;0.20;0.20;;;5.30;99.90;;;;;;5015887;28;20022;-73
2023/06/05 03:33:24;;;;;;;0.20;0.20;;;5.30;99.90;;;;;;5015916;28;20026;-73
2023/06/05 03:35:49;;;;;;;0.20;0.20;;;5.40;99.90;;;;;;5016180;28;20026;-73
2023/06/05 03:38:15;;;;;;;0.20;0.20;;;5.40;99.90;;;;;;5014334;28;20026;-73
2023/06/05 03:40:41;;;;;;;0.20;0.20;;;5.30;99.90;;;;;;5015628;28;20506;-73
2023/06/05 03:43:07;;;;;;;0.20;0.20;;;5.30;99.90;;;;;;5015566;28;20026;-73
2023/06/05 03:45:39;;;;;;;0.10;0.10;;;5.40;99.90;;;;;;5014714;28;20440;-73
2023/06/05 03:48:05;;;;;;;0.20;0.20;;;5.50;99.90;;;;;;5015264;28;20491;-73
2023/06/05 03:50:32;;;;;;;0.20;0.20;;;5.70;99.90;;;;;;5014190;28;20036;-73
2023/06/05 03:53:02;;;;;;;0.17;0.17;;;5.90;99.90;;;;;;5030785;28;20060;-73
2023/06/05 03:55:40;;;;;;;0.30;0.30;;;6.10;99.90;;;;;;5015297;28;20033;-73
2023/06/05 03:58:13;;;;;;;0.20;0.20;;;6.20;99.90;;;;;;5015812;28;20018;-73
2023/06/05 04:00:38;;;;;;;0.20;0.20;;;6.30;99.90;;;;;;5015353;28;20040;-73
2023/06/05 04:03:04;;;;;;;0.10;0.10;;;6.50;99.90;;;;;;5015885;28;20511;-73
2023/06/05 04:05:30;;;;;;;0.10;0.10;;;6.50;99.90;;;;;;5015561;28;20080;-73
2023/06/05 04:07:56;;;;;;;0.20;0.20;;;6.60;99.90;;;;;;5015692;28;20022;-73
2023/06/05 04:10:21;;;;;;;0.20;0.20;;;6.80;99.90;;;;;;5015660;28;20025;-73
2023/06/05 04:12:47;;;;;;;0.20;0.20;;;7.00;99.90;;;;;;5014138;28;20029;-73
2023/06/05 04:15:12;;;;;;;0.10;0.10;;;7.20;99.90;;;;;;5015337;28;20033;-73
2023/06/05 04:17:38;;;;;;;0.13;0.13;;;7.40;99.90;;;;;;5015285;28;20026;-73
2023/06/05 04:20:05;;;;;;;0.20;0.20;;;7.50;99.90;;;;;;5015828;28;20053;-73
2023/06/05 04:22:31;;;;;;;0.20;0.20;;;7.70;99.90;;;;;;5030495;28;20025;-73
2023/06/05 04:24:56;;;;;;;0.20;0.20;;;7.80;99.90;;;;;;5015797;28;20028;-73
2023/06/05 04:27:28;;;;;;;0.10;0.10;;;7.90;99.90;;;;;;5013970;28;20108;-73
2023/06/05 04:29:53;;;;;;;0.22;0.22;;;8.00;99.90;;;;;;5015490;28;20443;-73
2023/06/05 04:32:19;;;;;;;0.20;0.20;;;8.20;99.90;;;;;;5013799;28;20018;-73
2023/06/05 04:34:45;;;;;;;0.20;0.20;;;8.30;99.90;;;;;;5014974;28;20407;-73
2023/06/05 04:37:10;;;;;;;0.20;0.20;;;8.50;99.90;;;;;;5015150;28;20056;-73
2023/06/05 04:39:36;;;;;;;0.25;0.25;;;8.60;99.90;;;;;;5014896;28;20105;-73
2023/06/05 04:42:02;;;;;;;0.10;0.10;;;8.70;99.90;;;;;;5014823;28;20494;-73
2023/06/05 04:44:28;;;;;;;0.20;0.20;;;8.90;99.90;;;;;;5015106;28;20046;-73
2023/06/05 04:46:54;;;;;;;0.20;0.20;;;9.00;99.90;;;;;;5015099;28;20114;-73
2023/06/05 04:49:26;;;;;;;0.30;0.30;;;9.00;99.90;;;;;;5014931;28;20022;-73
2023/06/05 04:51:53;;;;;;;0.20;0.20;;;9.10;99.90;;;;;;5014967;28;20033;-74
2023/06/05 04:54:19;;;;;;;0.10;0.10;;;9.20;99.90;;;;;;5013401;28;20049;-73
2023/06/05 04:56:45;;;;;;;0.20;0.20;;;9.30;99.90;;;;;;5029769;28;20034;-73
2023/06/05 04:59:11;;;;;;;0.10;0.10;;;9.30;99.90;;;;;;5013799;28;20443;-73
2023/06/05 05:01:36;;;;;;;0.20;0.20;;;9.40;99.90;;;;;;5014726;28;20017;-73
2023/06/05 05:04:02;;;;;;;0.10;0.10;;;9.40;99.90;;;;;;5014535;28;20026;-73
2023/06/05 05:06:28;;;;;;;0.10;0.10;;;9.40;99.90;;;;;;5014478;28;20044;-73
2023/06/05 05:08:54;;;;;;;0.20;0.20;;;9.50;99.90;;;;;;5015032;28;20115;-73
2023/06/05 05:11:20;;;;;;;0.20;0.20;;;9.50;99.90;;;;;;5014606;28;20055;-74
2023/06/05 05:13:46;;;;;;;0.10;0.10;;;9.60;99.90;;;;;;5013081;28;20484;-73
2023/06/05 05:16:11;;;;;;;0.20;0.20;;;9.60;99.90;;;;;;5014145;28;20062;-73
2023/06/05 05:18:40;;;;;;;0.10;0.10;;;9.60;99.90;;;;;;5013016;28;20483;-74
2023/06/05 05:21:06;;;;;;;0.22;0.22;;;9.70;99.90;;;;;;5014127;28;20468;-74
2023/06/05 05:23:33;;;;;;;0.20;0.20;;;9.80;99.90;;;;;;5014254;28;20105;-74
2023/06/05 05:25:59;;;;;;;0.17;0.17;;;9.80;99.90;;;;;;5014111;28;20073;-74
2023/06/05 05:28:25;;;;;;;0.20;0.20;;;9.80;99.90;;;;;;5014102;28;20030;-74
2023/06/05 05:30:52;;;;;;;0.20;0.20;;;9.90;99.90;;;;;;5012346;28;20403;-73
2023/06/05 05:33:18;;;;;;;0.10;0.10;;;9.90;99.90;;;;;;5013995;28;20030;-73
2023/06/05 05:35:44;;;;;;;0.20;0.20;;;9.90;99.90;;;;;;5012635;28;20033;-73
2023/06/05 05:38:10;;;;;;;0.30;0.30;;;9.90;99.90;;;;;;5014268;28;20033;-74
2023/06/05 05:40:36;;;;;;;0.20;0.20;;;10.00;99.90;;;;;;5014007;28;20041;-74
2023/06/05 05:43:01;;;;;;;0.20;0.20;;;10.20;99.90;;;;;;5012513;28;20026;-74
2023/06/05 05:45:27;;;;;;;0.20;0.20;;;10.30;99.90;;;;;;5012320;28;20112;-74
2023/06/05 05:47:52;;;;;;;0.20;0.20;;;10.40;99.90;;;;;;5014045;28;20052;-74
2023/06/05 05:50:18;;;;;;;0.20;0.20;;;10.40;99.90;;;;;;5013658;28;20026;-75
2023/06/05 05:52:44;;;;;;;0.10;0.10;;;10.30;99.90;;;;;;5013670;28;20076;-75
2023/06/05 05:55:10;;;;;;;0.20;0.20;;;10.40;99.90;;;;;;5028850;28;20026;-75
2023/06/05 05:57:37;;;;;;;0.20;0.20;;;10.50;99.90;;;;;;5028941;28;20087;-74
2023/06/05 06:00:07;;;;;;;0.20;0.20;;;10.60;99.90;;;;;;5013443;28;20025;-74
2023/06/05 06:02:33;;;;;;;0.20;0.20;;;10.50;99.90;;;;;;5013605;28;20068;-74
2023/06/05 06:04:59;;;;;;;0.20;0.20;;;10.60;99.90;;;;;;5013376;28;20018;-74
2023/06/05 06:07:25;;;;;;;0.28;0.28;;;10.60;99.90;;;;;;5012863;28;20044;-74
2023/06/05 06:09:51;;;;;;;0.20;0.20;;;10.70;99.90;;;;;;5027998;28;20602;-74
2023/06/05 06:12:16;;;;;;;0.20;0.20;;;10.80;99.90;;;;;;5011754;28;20108;-74
2023/06/05 06:14:42;;;;;;;0.20;0.20;;;10.90;99.90;;;;;;5013282;28;20032;-74
2023/06/05 06:17:10;;;;;;;0.10;0.10;;;11.20;99.90;;;;;;5013242;28;20018;-74
2023/06/05 06:19:35;;;;;;;0.20;0.20;;;11.30;99.90;;;;;;5013038;28;20018;-74
2023/06/05 06:22:01;;;;;;;0.20;0.20;;;11.50;99.90;;;;;;5013048;28;20500;-74
2023/06/05 06:24:26;;;;;;;0.20;0.20;;;11.60;99.90;;;;;;5012949;28;20065;-74
2023/06/05 06:26:52;;;;;;;0.20;0.20;;;11.70;99.90;;;;;;5013150;28;20022;-74
2023/06/05 06:29:19;;;;;;;0.20;0.20;;;11.80;99.90;;;;;;5013031;28;20495;-74
2023/06/05 06:31:44;;;;;;;0.20;0.20;;;11.90;99.90;;;;;;5013081;28;20040;-74
2023/06/05 06:34:10;;;;;;;0.20;0.20;;;12.10;99.90;;;;;;5012781;28;20030;-74
2023/06/05 06:36:43;;;;;;;0.20;0.20;;;12.30;99.90;;;;;;5013088;28;20054;-74
2023/06/05 06:39:10;;;;;;;0.20;0.20;;;12.40;99.90;;;;;;5013038;28;20614;-74
2023/06/05 06:41:36;;;;;;;0.20;0.20;;;12.60;99.90;;;;;;5012481;28;20048;-71
2023/06/05 06:44:03;;;;;;;0.20;0.20;;;12.80;99.90;;;;;;5013060;28;20109;-75
2023/06/05 06:46:30;;;;;;;0.20;0.20;;;12.90;99.90;;;;;;5012466;28;20034;-74
2023/06/05 06:48:55;;;;;;;0.20;0.20;;;13.10;99.90;;;;;;5012859;28;20065;-74
2023/06/05 06:51:22;;;;;;;0.13;0.13;;;13.30;99.90;;;;;;5012703;28;20084;-74
2023/06/05 06:53:47;;;;;;;0.20;0.20;;;13.50;99.90;;;;;;5011974;28;20064;-74
2023/06/05 06:56:15;;;;;;;0.20;0.20;;;13.60;99.90;;;;;;5012664;28;20502;-74
2023/06/05 06:58:41;;;;;;;0.20;0.20;;;13.60;99.90;;;;;;5012516;28;20022;-74
2023/06/05 07:01:06;;;;;;;0.17;0.17;;;13.50;99.90;;;;;;5012699;28;20025;-74
2023/06/05 07:03:32;;;;;;;0.30;0.30;;;13.40;99.90;;;;;;5012605;28;20045;-74
2023/06/05 07:05:57;;;;;;;0.15;0.15;;;13.50;99.90;;;;;;5012629;28;20030;-74
2023/06/05 07:08:23;;;;;;;0.20;0.20;;;13.60;99.90;;;;;;5011095;28;20021;-74
2023/06/05 07:10:49;;;;;;;0.20;0.20;;;13.70;99.90;;;;;;5011592;28;20053;-74
2023/06/05 07:13:15;;;;;;;0.13;0.13;;;13.80;99.90;;;;;;5027695;28;20030;-74
2023/06/05 07:15:40;;;;;;;0.17;0.17;;;13.90;99.90;;;;;;5011383;28;20030;-74
2023/06/05 07:18:06;;;;;;;0.20;0.20;;;14.10;99.90;;;;;;5012373;28;20108;-73
2023/06/05 07:20:31;;;;;;;0.10;0.10;;;14.20;99.90;;;;;;5012903;28;20106;-75
2023/06/05 07:22:57;;;;;;;0.20;0.20;;;14.10;99.90;;;;;;5014819;28;20033;-74
2023/06/05 07:25:24;;;;;;;0.20;0.20;;;14.10;99.90;;;;;;5016310;28;20058;-74
2023/06/05 07:27:50;;;;;;;0.10;0.10;;;14.10;99.90;;;;;;5015743;28;20034;-74
2023/06/05 07:30:16;;;;;;;0.10;0.10;;;14.20;99.90;;;;;;5016046;28;20018;-74
2023/06/05 07:32:42;;;;;;;0.20;0.20;;;14.30;99.90;;;;;;5015856;28;20022;-74
2023/06/05 07:35:09;;;;;;;0.20;0.20;;;14.50;99.90;;;;;;5015730;28;20029;-74
2023/06/05 07:37:35;;;;;;;0.20;0.20;;;14.50;99.90;;;;;;5015881;28;20116;-74
2023/06/05 07:40:01;;;;;;;0.20;0.20;;;14.70;99.90;;;;;;5015672;28;20029;-75
2023/06/05 07:42:26;;;;;;;0.15;0.15;;;14.90;99.90;;;;;;5031117;28;20014;-74
2023/06/05 07:44:52;;;;;;;0.15;0.15;;;15.00;99.90;;;;;;5014563;28;20396;-74
2023/06/05 07:47:17;;;;;;;0.20;0.20;;;15.00;99.90;;;;;;5015662;28;20467;-74
2023/06/05 07:49:43;;;;;;;0.20;0.20;;;14.90;99.90;;;;;;5015571;28;20014;-75
2023/06/05 07:52:08;;;;;;;0.20;0.20;;;15.10;99.90;;;;;;5015345;28;20026;-75
2023/06/05 07:54:34;;;;;;;0.20;0.20;;;14.90;99.90;;;;;;5015647;28;20037;-74
2023/06/05 07:57:00;;;;;;;0.20;0.20;;;15.00;99.90;;;;;;5014495;28;20430;-73
2023/06/05 07:59:27;;;;;;;0.10;0.10;;;15.20;99.90;;;;;;5015250;28;20177;-74
2023/06/05 08:01:55;;;;;;;0.10;0.10;;;15.40;99.90;;;;;;5015322;28;20538;-74
2023/06/05 08:04:24;;;;;;;0.10;0.10;;;15.70;99.90;;;;;;5015163;28;20058;-74
2023/06/05 08:06:51;;;;;;;0.10;0.10;;;15.50;99.90;;;;;;5015855;28;20022;-74
2023/06/05 08:09:17;;;;;;;0.10;0.10;;;15.60;99.90;;;;;;5015334;28;20030;-74
2023/06/05 08:11:42;;;;;;;0.10;0.10;;;15.80;99.90;;;;;;5030624;28;20545;-75
2023/06/05 08:14:08;;;;;;;0.10;0.10;;;15.60;99.90;;;;;;5014925;28;20057;-74
2023/06/05 08:16:34;;;;;;;0.20;0.20;;;16.10;99.90;;;;;;5014777;28;20033;-75
2023/06/05 08:19:01;;;;;;;0.10;0.10;;;16.50;99.90;;;;;;5015108;28;20022;-74
2023/06/05 08:21:26;;;;;;;0.20;0.20;;;16.60;99.90;;;;;;5014694;28;20528;-74
2023/06/05 08:23:52;;;;;;;0.17;0.17;;;16.50;99.90;;;;;;5014882;28;20034;-73
2023/06/05 08:26:21;;;;;;;0.20;0.20;;;16.40;99.90;;;;;;5014652;28;20057;-75
2023/06/05 08:28:48;;;;;;;0.10;0.10;;;16.50;99.90;;;;;;5015061;28;20040;-74
2023/06/05 08:31:14;;;;;;;0.20;0.20;;;16.30;99.90;;;;;;5014860;28;20026;-74
2023/06/05 08:33:42;;;;;;;0.10;0.10;;;16.10;99.90;;;;;;5013436;28;20033;-75
2023/06/05 08:36:07;;;;;;;0.10;0.10;;;15.90;99.90;;;;;;5014925;28;20022;-75
2023/06/05 08:38:34;;;;;;;0.10;0.10;;;15.80;99.90;;;;;;5013690;28;20391;-74
2023/06/05 08:41:07;;;;;;;0.10;0.10;;;15.80;99.90;;;;;;5083070;23;20049;-77
2023/06/05 08:43:38;;;;;;;0.10;0.10;;;16.00;99.90;;;;;;5037802;28;20029;-78
2023/06/05 08:46:09;;;;;;;0.20;0.20;;;16.10;99.90;;;;;;5037389;28;20033;-78
2023/06/05 08:48:42;;;;;;;0.10;0.10;;;16.30;99.90;;;;;;5037600;28;20021;-77
2023/06/05 08:51:11;;;;;;;0.10;0.10;;;16.60;99.90;;;;;;5034635;28;20017;-77
2023/06/05 08:53:39;;;;;;;0.10;0.10;;;16.60;99.90;;;;;;5034207;28;20037;-77
2023/06/05 08:56:06;;;;;;;0.20;0.20;;;16.50;99.90;;;;;;5033881;28;20032;-78
2023/06/05 08:58:32;;;;;;;0.10;0.10;;;16.80;99.90;;;;;;5034447;28;20389;-78
2023/06/05 09:00:59;;;;;;;0.10;0.10;;;17.40;99.90;;;;;;5033098;28;20022;-78
2023/06/05 09:03:25;;;;;;;0.20;0.20;;;17.60;99.90;;;;;;5032965;28;20108;-78
2023/06/05 09:05:52;;;;;;;0.10;0.10;;;18.00;99.90;;;;;;5038287;28;20072;-80
2023/06/05 09:08:27;;;;;;;0.10;0.10;;;18.30;99.90;;;;;;5041336;28;20021;-78
2023/06/05 09:10:52;;;;;;;0.08;0.08;;;18.80;99.90;;;;;;5042863;28;20027;-79
2023/06/05 09:13:18;;;;;;;0.10;0.10;;;19.20;99.90;;;;;;5040298;28;20094;-79
2023/06/05 09:15:50;;;;;;;0.10;0.10;;;19.20;99.90;;;;;;5038682;28;20455;-76
2023/06/05 09:18:15;;;;;;;0.15;0.15;;;19.40;99.90;;;;;;5037429;28;20018;-78
2023/06/05 09:20:45;;;;;;;0.10;0.10;;;19.40;99.90;;;;;;5036965;28;20076;-78
2023/06/05 09:23:26;;;;;;;0.10;0.10;;;19.20;99.90;;;;;;5036601;28;20032;-78
2023/06/05 09:25:52;;;;;;;0.10;0.10;;;18.90;99.90;;;;;;5032891;28;20495;-78
2023/06/05 09:28:17;;;;;;;0.20;0.20;;;18.60;99.90;;;;;;5034198;28;20077;-78
2023/06/05 09:31:03;;;;;;;0.20;0.20;;;18.40;99.90;;;;;;5033121;28;20403;-79
2023/06/05 09:33:33;;;;;;;0.10;0.10;;;18.50;99.90;;;;;;5033330;28;20029;-77
2023/06/05 09:36:03;;;;;;;0.20;0.20;;;18.90;99.90;;;;;;5035315;28;20036;-76
2023/06/05 09:38:29;;;;;;;0.10;0.10;;;19.20;99.90;;;;;;5033766;28;20499;-77
2023/06/05 09:41:05;;;;;;;0.10;0.10;;;19.70;99.90;;;;;;5033508;28;20060;-77
2023/06/05 09:43:30;;;;;;;0.10;0.10;;;19.60;99.90;;;;;;5034875;28;20021;-77
2023/06/05 09:45:56;;;;;;;0.10;0.10;;;19.40;99.90;;;;;;5033958;28;20035;-78
2023/06/05 09:48:22;;;;;;;0.10;0.10;;;19.00;99.90;;;;;;5033545;28;20048;-77
2023/06/05 09:50:47;;;;;;;0.10;0.10;;;19.00;99.90;;;;;;5034442;28;20048;-77
2023/06/05 09:53:18;;;;;;;0.10;0.10;;;19.50;99.90;;;;;;5034252;28;20029;-77
2023/06/05 09:55:44;;;;;;;0.10;0.10;;;19.70;99.90;;;;;;5033008;28;20498;-77
2023/06/05 09:58:13;;;;;;;0.10;0.10;;;20.30;99.90;;;;;;5033660;28;20025;-77
2023/06/05 10:00:41;;;;;;;0.10;0.10;;;20.80;99.90;;;;;;5034515;28;20045;-77
2023/06/05 10:03:17;;;;;;;0.10;0.10;;;21.10;99.90;;;;;;5033671;28;20568;-76
2023/06/05 10:05:44;;;;;;;0.10;0.10;;;21.40;99.90;;;;;;5035545;28;20051;-77
2023/06/05 10:08:12;;;;;;;0.10;0.10;;;21.10;99.90;;;;;;5033816;28;20114;-76
2023/06/05 10:10:39;;;;;;;0.10;0.10;;;20.90;99.90;;;;;;5034866;28;20025;-76
2023/06/05 10:13:04;;;;;;;0.10;0.10;;;20.70;99.90;;;;;;5034460;28;20061;-78
2023/06/05 10:15:31;;;;;;;0.10;0.10;;;20.70;99.90;;;;;;5034868;28;20032;-78
2023/06/05 10:17:57;;;;;;;0.10;0.10;;;20.60;99.90;;;;;;5034496;28;20026;-77
2023/06/05 10:20:23;;;;;;;0.10;0.10;;;20.80;99.90;;;;;;5033463;28;20532;-77
2023/06/05 10:22:50;;;;;;;0.10;0.10;;;20.80;99.90;;;;;;5034000;28;20026;-76
2023/06/05 10:25:19;;;;;;;0.10;0.10;;;21.20;99.90;;;;;;5034201;28;20044;-76
2023/06/05 10:28:22;;;;;;;0.10;0.10;;;21.80;99.90;;;;;;5034386;28;20030;-77
2023/06/05 10:31:26;;;;;;;0.10;0.10;;;21.70;99.90;;;;;;5035493;28;20418;-77
2023/06/05 10:34:00;;;;;;;0.10;0.10;;;22.10;99.90;;;;;;5033631;28;20108;-78
2023/06/05 10:36:43;;;;;;;0.08;0.08;;;21.80;99.90;;;;;;5034258;28;20040;-79
2023/06/05 10:39:13;;;;;;;0.10;0.10;;;21.50;99.90;;;;;;5035800;28;20025;-78
2023/06/05 10:41:39;;;;;;;0.10;0.10;;;21.10;99.90;;;;;;5035792;28;20053;-77
2023/06/05 10:44:05;;;;;;;0.10;0.10;;;21.20;99.90;;;;;;5035414;28;20026;-77
2023/06/05 10:46:36;;;;;;;0.10;0.10;;;21.10;99.90;;;;;;5034166;28;20029;-78
2023/06/05 10:49:08;;;;;;;0.00;0.00;;;21.30;99.90;;;;;;5034840;28;20372;-78
2023/06/05 10:51:37;;;;;;;0.10;0.10;;;21.40;99.90;;;;;;5034207;28;20021;-78
2023/06/05 10:54:06;;;;;;;0.10;0.10;;;21.40;99.90;;;;;;5032766;28;20514;-78
2023/06/05 10:56:51;;;;;;;0.00;0.00;;;21.40;99.90;;;;;;5035651;28;20025;-78
2023/06/05 10:59:17;;;;;;;0.10;0.10;;;21.20;99.90;;;;;;5038603;28;20018;-77
2023/06/05 11:01:43;;;;;;;0.10;0.10;;;21.20;99.90;;;;;;5039386;28;20021;-79
2023/06/05 11:04:09;;;;;;;0.10;0.10;;;22.00;99.90;;;;;;5037304;28;20155;-79
2023/06/05 11:06:37;;;;;;;0.03;0.03;;;22.30;99.90;;;;;;5040068;28;20479;-77
2023/06/05 11:09:12;;;;;;;0.10;0.10;;;22.20;99.90;;;;;;5038097;28;20087;-77
2023/06/05 11:11:58;;;;;;;0.00;0.00;;;22.00;99.90;;;;;;5040546;28;20495;-78
2023/06/05 11:14:25;;;;;;;0.10;0.10;;;22.60;99.90;;;;;;5038653;28;20033;-77
2023/06/05 11:16:50;;;;;;;0.10;0.10;;;22.90;99.90;;;;;;5038697;28;20120;-78
2023/06/05 11:19:19;;;;;;;0.00;0.00;;;23.50;99.90;;;;;;5040383;28;20049;-77
2023/06/05 11:22:05;;;;;;;0.10;0.10;;;23.60;99.90;;;;;;5037217;28;20060;-78
2023/06/05 11:24:32;;;;;;;0.00;0.00;;;23.40;99.90;;;;;;5039396;28;20029;-78
2023/06/05 11:26:58;;;;;;;0.00;0.00;;;23.50;99.90;;;;;;5037915;28;20021;-79
2023/06/05 11:29:25;;;;;;;0.00;0.00;;;23.50;99.90;;;;;;5039034;28;20522;-77
2023/06/05 11:31:52;;;;;;;0.00;0.00;;;23.90;99.90;;;;;;5037062;28;20038;-77
2023/06/05 11:34:17;;;;;;;0.00;0.00;;;24.30;99.90;;;;;;5037513;28;20087;-78
2023/06/05 11:36:44;;;;;;;0.00;0.00;;;24.50;99.90;;;;;;5036547;28;20037;-77
2023/06/05 11:39:11;;;;;;;0.10;0.10;;;24.40;99.90;;;;;;5036397;28;20441;-77
2023/06/05 11:41:44;;;;;;;0.00;0.00;;;23.70;99.90;;;;;;5036771;28;20041;-78
2023/06/05 11:44:09;;;;;;;0.00;0.00;;;23.50;99.90;;;;;;5039570;28;20483;-77
2023/06/05 11:46:40;;;;;;;0.10;0.10;;;23.50;99.90;;;;;;5040192;28;20038;-77
2023/06/05 11:49:06;;;;;;;0.00;0.00;;;24.10;99.90;;;;;;5037397;28;20041;-77
2023/06/05 11:51:36;;;;;;;0.00;0.00;;;24.60;99.90;;;;;;5039131;28;20100;-78
2023/06/05 11:54:04;;;;;;;0.00;0.00;;;25.10;99.90;;;;;;5038313;28;20076;-77
2023/06/05 11:56:31;;;;;;;0.00;0.00;;;24.90;99.90;;;;;;5038185;28;20026;-77
2023/06/05 11:58:57;;;;;;;0.00;0.00;;;25.10;99.90;;;;;;5037223;28;20048;-76
2023/06/05 12:01:24;;;;;;;0.00;0.00;;;25.70;99.90;;;;;;5036535;28;20387;-77
2023/06/05 12:04:05;;;;;;;0.00;0.00;;;25.70;99.90;;;;;;5036659;28;20025;-76
2023/06/05 12:06:31;;;;;;;0.00;0.00;;;25.40;99.90;;;;;;5038599;28;20034;-77
2023/06/05 12:09:09;;;;;;;0.00;0.00;;;24.80;99.90;;;;;;5038789;28;20108;-76
2023/06/05 12:11:35;;;;;;;0.00;0.00;;;24.70;99.90;;;;;;5037390;28;20037;-76
2023/06/05 12:14:00;;;;;;;0.00;0.00;;;24.80;99.90;;;;;;5038694;28;20030;-77
2023/06/05 12:16:40;;;;;;;0.00;0.00;;;25.10;99.90;;;;;;5039288;28;20120;-76
2023/06/05 12:19:17;;;;;;;0.00;0.00;;;25.30;99.90;;;;;;5037538;28;20026;-77
2023/06/05 12:21:48;;;;;;;0.00;0.00;;;25.90;99.90;;;;;;5036867;28;20032;-75
2023/06/05 12:24:14;;;;;;;0.00;0.00;;;26.00;99.90;;;;;;5035045;28;20028;-75
2023/06/05 12:26:53;;;;;;;0.00;0.00;;;25.70;99.90;;;;;;5035352;28;20029;-75
2023/06/05 12:29:21;;;;;;;0.00;0.00;;;25.80;99.90;;;;;;5034945;28;20032;-75
2023/06/05 12:31:46;;;;;;;0.00;0.00;;;25.60;99.90;;;;;;5034886;28;20026;-75
2023/06/05 12:34:12;;;;;;;0.00;0.00;;;25.30;99.90;;;;;;5035067;28;20537;-76
2023/06/05 12:36:42;;;;;;;0.00;0.00;;;24.50;99.90;;;;;;5034809;28;20104;-76
2023/06/05 12:39:10;;;;;;;0.10;0.10;;;24.20;99.90;;;;;;5035282;28;20382;-75
2023/06/05 12:41:36;;;;;;;0.00;0.00;;;24.30;99.90;;;;;;5034555;28;20036;-75
2023/06/05 12:44:04;;;;;;;0.00;0.00;;;24.50;99.90;;;;;;5035264;28;20021;-75
2023/06/05 12:46:31;;;;;;;0.00;0.00;;;24.20;99.90;;;;;;5033360;28;20426;-75
2023/06/05 12:48:57;;;;;;;0.10;0.10;;;24.30;99.90;;;;;;5033304;28;20491;-77
2023/06/05 12:51:25;;;;;;;0.00;0.00;;;24.10;99.90;;;;;;5034498;28;20036;-76
2023/06/05 12:53:51;;;;;;;0.03;0.03;;;23.70;99.90;;;;;;5033280;28;20053;-77